Time;durP1;ratioP1;P1;durP2;ratioP2;P2;SDS_P1;SDS_P2;PMS_P1;PMS_P2;Temp;Humidity;BMP_temperature;BMP_pressure;BME280_temperature;BME280_humidity;BME280_pressure;Samples;Min_cycle;Max_cycle;Signal;HPM_P1;HPM_P2
2022/07/24 00:00:02;;;;;;;;;;;;;;;;;;4949995;28;19962;-78
2022/07/24 00:02:38;;;;;;;;;;;;;;;;;;4949859;28;19931;-77
2022/07/24 00:05:05;;;;;;;;;;;;;;;;;;4948689;29;20028;-76
2022/07/24 00:07:34;;;;;;;;;;;;;;;;;;4948389;29;20294;-77
2022/07/24 00:10:01;;;;;;;;;;;;;;;;;;4949444;28;19926;-76
2022/07/24 00:12:29;;;;;;;;;;;;;;;;;;4950639;28;19927;-77
2022/07/24 00:14:56;;;;;;;;;;;;;;;;;;4950474;28;19937;-76
2022/07/24 00:17:23;;;;;;;;;;;;;;;;;;4950282;29;19926;-76
2022/07/24 00:19:50;;;;;;;;;;;;;;;;;;4949321;28;19930;-76
2022/07/24 00:22:18;;;;;;;;;;;;;;;;;;4949829;29;19926;-76
2022/07/24 00:24:45;;;;;;;;;;;;;;;;;;4948014;29;20408;-76
2022/07/24 00:27:12;;;;;;;;;;;;;;;;;;4948140;29;20037;-76
2022/07/24 00:29:40;;;;;;;;;;;;;;;;;;4949474;28;20029;-76
2022/07/24 00:32:07;;;;;;;;;;;;;;;;;;4950057;29;20001;-76
2022/07/24 00:34:34;;;;;;;;;;;;;;;;;;4948940;29;20014;-76
2022/07/24 00:37:01;;;;;;;;;;;;;;;;;;4949556;28;19930;-75
2022/07/24 00:39:29;;;;;;;;;;;;;;;;;;4949419;28;20454;-75
2022/07/24 00:41:56;;;;;;;;;;;;;;;;;;4949597;28;19964;-75
2022/07/24 00:44:23;;;;;;;;;;;;;;;;;;4949079;29;19941;-75
2022/07/24 00:46:51;;;;;;;;;;;;;;;;;;4948570;29;19930;-77
2022/07/24 00:49:19;;;;;;;;;;;;;;;;;;4949198;29;19952;-76
2022/07/24 00:51:48;;;;;;;;;;;;;;;;;;4949430;28;19930;-76
2022/07/24 00:54:15;;;;;;;;;;;;;;;;;;4949711;28;19927;-77
2022/07/24 00:56:42;;;;;;;;;;;;;;;;;;4949192;28;19941;-76
2022/07/24 00:59:09;;;;;;;;;;;;;;;;;;4949275;28;20671;-78
2022/07/24 01:01:37;;;;;;;;;;;;;;;;;;4949163;28;19931;-76
2022/07/24 01:04:04;;;;;;;;;;;;;;;;;;4948044;28;19931;-76
2022/07/24 01:06:31;;;;;;;;;;;;;;;;;;4948875;28;19968;-77
2022/07/24 01:08:58;;;;;;;;;;;;;;;;;;4949637;29;19930;-76
2022/07/24 01:11:26;;;;;;;;;;;;;;;;;;4944378;28;20038;-78
2022/07/24 01:13:53;;;;;;;;;;;;;;;;;;4945672;29;19930;-76
2022/07/24 01:16:20;;;;;;;;;;;;;;;;;;4929849;29;19930;-77
2022/07/24 01:18:47;;;;;;;;;;;;;;;;;;4946053;29;19981;-76
2022/07/24 01:21:15;;;;;;;;;;;;;;;;;;4948617;28;19966;-76
2022/07/24 01:23:42;;;;;;;;;;;;;;;;;;4947798;28;19930;-75
2022/07/24 01:26:09;;;;;;;;;;;;;;;;;;4948995;29;19937;-76
2022/07/24 01:28:36;;;;;;;;;;;;;;;;;;4948488;28;20334;-77
2022/07/24 01:31:04;;;;;;;;;;;;;;;;;;4947670;28;19926;-76
2022/07/24 01:33:31;;;;;;;;;;;;;;;;;;4947697;28;20414;-76
2022/07/24 01:35:59;;;;;;;;;;;;;;;;;;4942771;29;20458;-76
2022/07/24 01:38:26;;;;;;;;;;;;;;;;;;4928614;29;19935;-78
2022/07/24 01:40:53;;;;;;;;;;;;;;;;;;4928958;29;19935;-77
2022/07/24 01:43:21;;;;;;;;;;;;;;;;;;4912908;29;20305;-76
2022/07/24 01:45:48;;;;;;;;;;;;;;;;;;4932284;29;19934;-76
2022/07/24 01:48:16;;;;;;;;;;;;;;;;;;4942807;28;20484;-77
2022/07/24 01:50:43;;;;;;;;;;;;;;;;;;4923400;29;19935;-78
2022/07/24 01:53:11;;;;;;;;;;;;;;;;;;4939691;29;20049;-76
2022/07/24 01:55:38;;;;;;;;;;;;;;;;;;4940162;29;20032;-76
2022/07/24 01:58:05;;;;;;;;;;;;;;;;;;4939808;29;19935;-77
2022/07/24 02:00:32;;;;;;;;;;;;;;;;;;4928636;29;19934;-78
2022/07/24 02:03:00;;;;;;;;;;;;;;;;;;4921126;29;20017;-78
2022/07/24 02:05:27;;;;;;;;;;;;;;;;;;4928002;29;20011;-77
2022/07/24 02:07:54;;;;;;;;;;;;;;;;;;4945702;29;19930;-77
2022/07/24 02:10:23;;;;;;;;;;;;;;;;;;4945483;28;19926;-76
2022/07/24 02:12:50;;;;;;;;;;;;;;;;;;4940448;29;19926;-77
2022/07/24 02:15:17;;;;;;;;;;;;;;;;;;4928668;29;19941;-77
2022/07/24 02:17:44;;;;;;;;;;;;;;;;;;4927739;29;19926;-77
2022/07/24 02:20:11;;;;;;;;;;;;;;;;;;4935277;29;19934;-76
2022/07/24 02:22:39;;;;;;;;;;;;;;;;;;4939426;29;20379;-78
2022/07/24 02:25:06;;;;;;;;;;;;;;;;;;4939287;28;19931;-76
2022/07/24 02:27:34;;;;;;;;;;;;;;;;;;4946932;29;19940;-76
2022/07/24 02:30:01;;;;;;;;;;;;;;;;;;4945694;28;19960;-77
2022/07/24 02:32:28;;;;;;;;;;;;;;;;;;4941093;29;19937;-77
2022/07/24 02:34:55;;;;;;;;;;;;;;;;;;4932618;29;19930;-78
2022/07/24 02:37:22;;;;;;;;;;;;;;;;;;4951104;28;19926;-77
2022/07/24 02:39:50;;;;;;;;;;;;;;;;;;4928937;29;19937;-78
2022/07/24 02:42:17;;;;;;;;;;;;;;;;;;4942617;28;19931;-76
2022/07/24 02:44:44;;;;;;;;;;;;;;;;;;4942678;29;20029;-76
2022/07/24 02:47:11;;;;;;;;;;;;;;;;;;4941545;28;19934;-76
2022/07/24 02:49:39;;;;;;;;;;;;;;;;;;4941896;28;20276;-78
2022/07/24 02:52:06;;;;;;;;;;;;;;;;;;4941608;28;20327;-76
2022/07/24 02:54:34;;;;;;;;;;;;;;;;;;4940985;29;20049;-76
2022/07/24 02:57:01;;;;;;;;;;;;;;;;;;4937682;28;19936;-78
2022/07/24 02:59:28;;;;;;;;;;;;;;;;;;4941954;28;19934;-77
2022/07/24 03:01:56;;;;;;;;;;;;;;;;;;4945152;28;19937;-77
2022/07/24 03:04:23;;;;;;;;;;;;;;;;;;4948205;28;19938;-76
2022/07/24 03:06:50;;;;;;;;;;;;;;;;;;4958747;28;19926;-77
2022/07/24 03:09:17;;;;;;;;;;;;;;;;;;4947739;28;19931;-77
2022/07/24 03:11:45;;;;;;;;;;;;;;;;;;4936077;28;19935;-78
2022/07/24 03:14:12;;;;;;;;;;;;;;;;;;4937894;28;19926;-77
2022/07/24 03:16:42;;;;;;;;;;;;;;;;;;4943197;28;20070;-77
2022/07/24 03:19:09;;;;;;;;;;;;;;;;;;4929954;28;19930;-76
2022/07/24 03:21:37;;;;;;;;;;;;;;;;;;4948156;28;19927;-77
2022/07/24 03:24:14;;;;;;;;;;;;;;;;;;4933061;28;19930;-77
2022/07/24 03:26:41;;;;;;;;;;;;;;;;;;4949814;28;20295;-77
2022/07/24 03:29:08;;;;;;;;;;;;;;;;;;4957450;28;20405;-76
2022/07/24 03:31:35;;;;;;;;;;;;;;;;;;4969288;28;19933;-78
2022/07/24 03:34:03;;;;;;;;;;;;;;;;;;4941517;28;19933;-76
2022/07/24 03:36:30;;;;;;;;;;;;;;;;;;4949168;28;19930;-76
2022/07/24 03:38:57;;;;;;;;;;;;;;;;;;4946799;28;19934;-78
2022/07/24 03:41:25;;;;;;;;;;;;;;;;;;4949892;28;19935;-77
2022/07/24 03:43:52;;;;;;;;;;;;;;;;;;4949942;28;20045;-77
2022/07/24 03:46:19;;;;;;;;;;;;;;;;;;4940649;28;19926;-77
2022/07/24 03:48:46;;;;;;;;;;;;;;;;;;4958796;28;19935;-78
2022/07/24 03:51:14;;;;;;;;;;;;;;;;;;4932668;28;20595;-76
2022/07/24 03:53:41;;;;;;;;;;;;;;;;;;4948964;28;19930;-77
2022/07/24 03:56:08;;;;;;;;;;;;;;;;;;4950895;29;19927;-78
2022/07/24 03:58:35;;;;;;;;;;;;;;;;;;4932005;29;19934;-77
2022/07/24 04:01:06;;;;;;;;;;;;;;;;;;4949987;28;19933;-76
2022/07/24 04:03:33;;;;;;;;;;;;;;;;;;4949548;28;19966;-77
2022/07/24 04:06:01;;;;;;;;;;;;;;;;;;4949918;28;20694;-78
2022/07/24 04:08:28;;;;;;;;;;;;;;;;;;4933147;29;19935;-78
2022/07/24 04:10:58;;;;;;;;;;;;;;;;;;4950446;28;19941;-78
2022/07/24 04:13:25;;;;;;;;;;;;;;;;;;4948396;28;20092;-78
2022/07/24 04:15:53;;;;;;;;;;;;;;;;;;4942650;28;19926;-77
2022/07/24 04:18:20;;;;;;;;;;;;;;;;;;4936278;28;19966;-77
2022/07/24 04:20:47;;;;;;;;;;;;;;;;;;4937208;29;19950;-76
2022/07/24 04:23:14;;;;;;;;;;;;;;;;;;4939689;28;20337;-76
2022/07/24 04:25:42;;;;;;;;;;;;;;;;;;4931677;28;19934;-76
2022/07/24 04:28:09;;;;;;;;;;;;;;;;;;4948970;28;20025;-77
2022/07/24 04:30:36;;;;;;;;;;;;;;;;;;4948834;28;19953;-77
2022/07/24 04:33:03;;;;;;;;;;;;;;;;;;4943904;28;19933;-77
2022/07/24 04:35:31;;;;;;;;;;;;;;;;;;4944932;28;20557;-76
2022/07/24 04:37:58;;;;;;;;;;;;;;;;;;4933124;29;19942;-76
2022/07/24 04:40:25;;;;;;;;;;;;;;;;;;4929850;28;19990;-77
2022/07/24 04:45:41;;;;;;;;;;;;;;;;;;4902867;29;19986;-70
2022/07/24 04:48:08;;;;;;;;;;;;;;;;;;4909237;29;19987;-70
2022/07/24 04:50:36;;;;;;;;;;;;;;;;;;4907542;29;20021;-69
2022/07/24 04:53:03;;;;;;;;;;;;;;;;;;4895124;29;20356;-69
2022/07/24 04:55:30;;;;;;;;;;;;;;;;;;4881832;29;19936;-69
2022/07/24 04:57:57;;;;;;;;;;;;;;;;;;4862014;29;19932;-70
2022/07/24 05:00:25;;;;;;;;;;;;;;;;;;4896830;29;20391;-69
2022/07/24 05:02:52;;;;;;;;;;;;;;;;;;4896362;29;20022;-70
2022/07/24 05:05:19;;;;;;;;;;;;;;;;;;4886811;29;19939;-70
2022/07/24 05:07:46;;;;;;;;;;;;;;;;;;4888980;29;20364;-69
2022/07/24 05:10:14;;;;;;;;;;;;;;;;;;4883508;29;19932;-70
2022/07/24 05:12:41;;;;;;;;;;;;;;;;;;4891713;29;19927;-70
2022/07/24 05:15:08;;;;;;;;;;;;;;;;;;4890427;29;19955;-70
2022/07/24 05:17:36;;;;;;;;;;;;;;;;;;4874998;29;20029;-70
2022/07/24 05:20:03;;;;;;;;;;;;;;;;;;4897653;29;19937;-70
2022/07/24 05:22:30;;;;;;;;;;;;;;;;;;4895015;29;19938;-70
2022/07/24 05:24:57;;;;;;;;;;;;;;;;;;4892381;29;20304;-70
2022/07/24 05:27:25;;;;;;;;;;;;;;;;;;4874900;29;19987;-69
2022/07/24 05:29:52;;;;;;;;;;;;;;;;;;4892118;29;19931;-70
2022/07/24 05:32:19;;;;;;;;;;;;;;;;;;4890913;29;19967;-70
2022/07/24 05:34:46;;;;;;;;;;;;;;;;;;4891052;29;20357;-70
2022/07/24 05:37:14;;;;;;;;;;;;;;;;;;4891290;29;19934;-70
2022/07/24 05:39:41;;;;;;;;;;;;;;;;;;4891233;29;20315;-69
2022/07/24 05:42:08;;;;;;;;;;;;;;;;;;4874532;29;19933;-70
2022/07/24 05:44:37;;;;;;;;;;;;;;;;;;4890879;29;20431;-70
2022/07/24 05:47:04;;;;;;;;;;;;;;;;;;4891428;29;19947;-70
2022/07/24 05:49:32;;;;;;;;;;;;;;;;;;4890690;29;19966;-69
2022/07/24 05:51:59;;;;;;;;;;;;;;;;;;4890874;29;20404;-70
2022/07/24 05:54:30;;;;;;;;;;;;;;;;;;4891778;29;20296;-70
2022/07/24 05:56:57;;;;;;;;;;;;;;;;;;4891219;29;20027;-70
2022/07/24 05:59:25;;;;;;;;;;;;;;;;;;4891358;29;19931;-70
2022/07/24 06:01:52;;;;;;;;;;;;;;;;;;4891757;29;19927;-69
2022/07/24 06:04:19;;;;;;;;;;;;;;;;;;4892450;29;19942;-70
2022/07/24 06:06:47;;;;;;;;;;;;;;;;;;4898952;29;20033;-72
2022/07/24 06:09:14;;;;;;;;;;;;;;;;;;4905451;29;19982;-71
2022/07/24 06:11:41;;;;;;;;;;;;;;;;;;4892792;29;20045;-72
2022/07/24 06:14:08;;;;;;;;;;;;;;;;;;4890664;29;19932;-71
2022/07/24 06:16:36;;;;;;;;;;;;;;;;;;4879095;29;19935;-71
2022/07/24 06:19:03;;;;;;;;;;;;;;;;;;4891150;29;19939;-71
2022/07/24 06:21:31;;;;;;;;;;;;;;;;;;4897319;29;19934;-71
2022/07/24 06:23:58;;;;;;;;;;;;;;;;;;4890747;29;19950;-73
2022/07/24 06:26:25;;;;;;;;;;;;;;;;;;4904957;29;20096;-72
2022/07/24 06:28:52;;;;;;;;;;;;;;;;;;4894967;29;19991;-72
2022/07/24 06:31:20;;;;;;;;;;;;;;;;;;4877232;29;19935;-72
2022/07/24 06:33:47;;;;;;;;;;;;;;;;;;4901623;29;19977;-72
2022/07/24 06:36:15;;;;;;;;;;;;;;;;;;4901520;29;19931;-73
2022/07/24 06:38:42;;;;;;;;;;;;;;;;;;4889745;29;19970;-72
2022/07/24 06:41:09;;;;;;;;;;;;;;;;;;4899526;29;19937;-72
2022/07/24 06:43:36;;;;;;;;;;;;;;;;;;4873563;29;19958;-73
2022/07/24 06:46:04;;;;;;;;;;;;;;;;;;4896713;29;19932;-72
2022/07/24 06:48:31;;;;;;;;;;;;;;;;;;4905625;29;19931;-74
2022/07/24 06:50:58;;;;;;;;;;;;;;;;;;4894197;29;19933;-72
2022/07/24 06:53:25;;;;;;;;;;;;;;;;;;4876142;29;20022;-74
2022/07/24 06:55:54;;;;;;;;;;;;;;;;;;4900911;29;20351;-72
2022/07/24 06:58:21;;;;;;;;;;;;;;;;;;4892988;29;20687;-72
2022/07/24 07:00:49;;;;;;;;;;;;;;;;;;4890665;29;20493;-72
2022/07/24 07:03:17;;;;;;;;;;;;;;;;;;4892111;29;20002;-73
2022/07/24 07:05:44;;;;;;;;;;;;;;;;;;4898528;29;19938;-72
2022/07/24 07:08:11;;;;;;;;;;;;;;;;;;4896680;29;20382;-72
2022/07/24 07:10:38;;;;;;;;;;;;;;;;;;4908945;29;19982;-73
2022/07/24 07:13:06;;;;;;;;;;;;;;;;;;4908449;29;19931;-73
2022/07/24 07:15:33;;;;;;;;;;;;;;;;;;4895404;29;19935;-72
2022/07/24 07:18:00;;;;;;;;;;;;;;;;;;4887916;29;19958;-73
2022/07/24 07:20:28;;;;;;;;;;;;;;;;;;4887392;29;19937;-73
2022/07/24 07:22:55;;;;;;;;;;;;;;;;;;4891373;29;19966;-73
2022/07/24 07:25:22;;;;;;;;;;;;;;;;;;4904411;29;20054;-73
2022/07/24 07:27:50;;;;;;;;;;;;;;;;;;4906320;29;19975;-72
2022/07/24 07:30:17;;;;;;;;;;;;;;;;;;4888154;29;20018;-72
2022/07/24 07:32:44;;;;;;;;;;;;;;;;;;4893181;29;19939;-72
2022/07/24 07:35:11;;;;;;;;;;;;;;;;;;4902763;29;20468;-72
2022/07/24 07:37:47;;;;;;;;;;;;;;;;;;4893737;29;19939;-72
2022/07/24 07:40:14;;;;;;;;;;;;;;;;;;4892479;29;19927;-72
2022/07/24 07:42:41;;;;;;;;;;;;;;;;;;4892799;29;20026;-72
2022/07/24 07:45:08;;;;;;;;;;;;;;;;;;4892449;29;20694;-74
2022/07/24 07:47:36;;;;;;;;;;;;;;;;;;4901863;29;19927;-73
2022/07/24 07:50:04;;;;;;;;;;;;;;;;;;4891570;29;20307;-72
2022/07/24 07:52:31;;;;;;;;;;;;;;;;;;4908023;29;19931;-73
2022/07/24 07:54:58;;;;;;;;;;;;;;;;;;4901755;29;20010;-73
2022/07/24 07:57:26;;;;;;;;;;;;;;;;;;4891589;29;19971;-73
2022/07/24 08:00:13;;;;;;;;;;;;;;;;;;4892991;29;19965;-73
2022/07/24 08:02:41;;;;;;;;;;;;;;;;;;4892020;29;19932;-73
2022/07/24 08:05:09;;;;;;;;;;;;;;;;;;4875011;29;19931;-73
2022/07/24 08:07:36;;;;;;;;;;;;;;;;;;4892042;29;19932;-73
2022/07/24 08:10:03;;;;;;;;;;;;;;;;;;4891388;29;19959;-73
2022/07/24 08:12:31;;;;;;;;;;;;;;;;;;4874470;29;19934;-70
2022/07/24 08:14:58;;;;;;;;;;;;;;;;;;4893005;29;19936;-72
2022/07/24 08:17:25;;;;;;;;;;;;;;;;;;4893817;29;19935;-72
2022/07/24 08:19:53;;;;;;;;;;;;;;;;;;4882754;29;19975;-73
2022/07/24 08:22:20;;;;;;;;;;;;;;;;;;4888874;29;19932;-72
2022/07/24 08:24:48;;;;;;;;;;;;;;;;;;4894652;29;19931;-72
2022/07/24 08:27:15;;;;;;;;;;;;;;;;;;4907738;29;19931;-72
2022/07/24 08:29:42;;;;;;;;;;;;;;;;;;4903541;29;19935;-72
2022/07/24 08:32:09;;;;;;;;;;;;;;;;;;4902023;29;20426;-73
2022/07/24 08:34:37;;;;;;;;;;;;;;;;;;4884839;29;20469;-72
2022/07/24 08:37:04;;;;;;;;;;;;;;;;;;4886195;29;19938;-73
2022/07/24 08:39:31;;;;;;;;;;;;;;;;;;4891859;29;19931;-72
2022/07/24 08:41:59;;;;;;;;;;;;;;;;;;4896930;29;20545;-72
2022/07/24 08:44:26;;;;;;;;;;;;;;;;;;4888177;29;20443;-72
2022/07/24 08:46:53;;;;;;;;;;;;;;;;;;4888181;29;19938;-74
2022/07/24 08:49:20;;;;;;;;;;;;;;;;;;4881792;29;19931;-73
2022/07/24 08:51:48;;;;;;;;;;;;;;;;;;4878732;29;19995;-72
2022/07/24 08:54:15;;;;;;;;;;;;;;;;;;4887514;29;20399;-74
2022/07/24 08:56:42;;;;;;;;;;;;;;;;;;4889399;29;19931;-72
2022/07/24 08:59:09;;;;;;;;;;;;;;;;;;4905126;29;20038;-72
2022/07/24 09:01:37;;;;;;;;;;;;;;;;;;4889082;29;19936;-74
2022/07/24 09:04:04;;;;;;;;;;;;;;;;;;4883606;29;19936;-73
2022/07/24 09:06:31;;;;;;;;;;;;;;;;;;4891311;29;20010;-72
2022/07/24 09:08:59;;;;;;;;;;;;;;;;;;4891923;29;19927;-72
2022/07/24 09:11:29;;;;;;;;;;;;;;;;;;4890778;29;19934;-73
2022/07/24 09:16:42;;;;;;;;;;;;;;;;;;4889369;29;19943;-72
2022/07/24 09:19:10;;;;;;;;;;;;;;;;;;4886978;29;19935;-71
2022/07/24 09:21:39;;;;;;;;;;;;;;;;;;4887921;29;19944;-73
2022/07/24 09:24:06;;;;;;;;;;;;;;;;;;4876035;29;19937;-73
2022/07/24 09:26:33;;;;;;;;;;;;;;;;;;4896477;29;20498;-72
2022/07/24 09:29:00;;;;;;;;;;;;;;;;;;4890540;29;19935;-72
2022/07/24 09:31:28;;;;;;;;;;;;;;;;;;4889492;29;19935;-72
2022/07/24 09:33:56;;;;;;;;;;;;;;;;;;4894423;29;20451;-73
2022/07/24 09:36:23;;;;;;;;;;;;;;;;;;4883928;29;19943;-71
2022/07/24 09:38:51;;;;;;;;;;;;;;;;;;4877820;29;20002;-72
2022/07/24 09:41:18;;;;;;;;;;;;;;;;;;4891027;29;19966;-72
2022/07/24 09:43:45;;;;;;;;;;;;;;;;;;4891893;29;19935;-71
2022/07/24 09:46:14;;;;;;;;;;;;;;;;;;4892057;29;19932;-72
2022/07/24 09:48:41;;;;;;;;;;;;;;;;;;4880351;29;19932;-71
2022/07/24 09:51:08;;;;;;;;;;;;;;;;;;4889084;29;19927;-73
2022/07/24 09:53:37;;;;;;;;;;;;;;;;;;4891531;29;19982;-71
2022/07/24 09:56:07;;;;;;;;;;;;;;;;;;4891055;29;19935;-71
2022/07/24 09:58:35;;;;;;;;;;;;;;;;;;4891468;29;19931;-72
2022/07/24 10:01:02;;;;;;;;;;;;;;;;;;4890251;29;19934;-71
2022/07/24 10:03:30;;;;;;;;;;;;;;;;;;4889478;29;20304;-72
2022/07/24 10:05:57;;;;;;;;;;;;;;;;;;4891141;29;19928;-71
2022/07/24 10:08:24;;;;;;;;;;;;;;;;;;4878877;29;19971;-72
2022/07/24 10:10:51;;;;;;;;;;;;;;;;;;4882674;29;20034;-73
2022/07/24 10:13:24;;;;;;;;;;;;;;;;;;4869134;29;19936;-72
2022/07/24 10:15:53;;;;;;;;;;;;;;;;;;4888843;29;19995;-72
2022/07/24 10:18:21;;;;;;;;;;;;;;;;;;4895020;29;19942;-73
2022/07/24 10:20:49;;;;;;;;;;;;;;;;;;4894274;29;19978;-71
2022/07/24 10:23:16;;;;;;;;;;;;;;;;;;4897017;29;19931;-70
2022/07/24 10:25:44;;;;;;;;;;;;;;;;;;4888314;29;20307;-71
2022/07/24 10:28:11;;;;;;;;;;;;;;;;;;4891747;29;19931;-72
2022/07/24 10:30:38;;;;;;;;;;;;;;;;;;4893038;29;19981;-70
2022/07/24 10:33:06;;;;;;;;;;;;;;;;;;4892107;29;19995;-71
2022/07/24 10:35:33;;;;;;;;;;;;;;;;;;4895284;29;19935;-73
2022/07/24 10:38:00;;;;;;;;;;;;;;;;;;4896976;29;19935;-71
2022/07/24 10:40:28;;;;;;;;;;;;;;;;;;4883967;29;20038;-68
2022/07/24 10:42:55;;;;;;;;;;;;;;;;;;4886535;29;20359;-74
2022/07/24 10:45:28;;;;;;;;;;;;;;;;;;4875202;29;19955;-71
2022/07/24 10:47:55;;;;;;;;;;;;;;;;;;4883406;29;20002;-72
2022/07/24 10:50:23;;;;;;;;;;;;;;;;;;4860883;29;20026;-71
2022/07/24 10:52:50;;;;;;;;;;;;;;;;;;4886968;29;20426;-72
2022/07/24 10:55:17;;;;;;;;;;;;;;;;;;4873232;29;19961;-72
2022/07/24 10:57:45;;;;;;;;;;;;;;;;;;4893672;29;19963;-72
2022/07/24 11:00:12;;;;;;;;;;;;;;;;;;4895730;29;20614;-71
2022/07/24 11:02:39;;;;;;;;;;;;;;;;;;4902561;29;20022;-71
2022/07/24 11:05:07;;;;;;;;;;;;;;;;;;4897276;29;20342;-73
2022/07/24 11:07:34;;;;;;;;;;;;;;;;;;4900344;29;19931;-69
2022/07/24 11:10:01;;;;;;;;;;;;;;;;;;4904266;29;19958;-68
2022/07/24 11:12:29;;;;;;;;;;;;;;;;;;4902805;29;19962;-73
2022/07/24 11:15:53;;;;;;;;;;;;;;;;;;4915855;23;19935;-78
2022/07/24 11:17:43;;;;;;;;;;;;;;;;;;4939022;28;20068;-74
2022/07/24 11:20:11;;;;;;;;;;;;;;;;;;4955033;28;19938;-75
2022/07/24 11:22:38;;;;;;;;;;;;;;;;;;4951316;28;19937;-75
2022/07/24 11:25:06;;;;;;;;;;;;;;;;;;4964796;28;19946;-77
2022/07/24 11:27:33;;;;;;;;;;;;;;;;;;4944299;28;19931;-77
2022/07/24 11:30:01;;;;;;;;;;;;;;;;;;4924311;28;19927;-77
2022/07/24 11:32:29;;;;;;;;;;;;;;;;;;4944321;28;19930;-77
2022/07/24 11:34:56;;;;;;;;;;;;;;;;;;4934934;28;19926;-76
2022/07/24 11:37:28;;;;;;;;;;;;;;;;;;4947052;28;19935;-77
2022/07/24 11:40:03;;;;;;;;;;;;;;;;;;4942212;28;20189;-77
2022/07/24 11:42:30;;;;;;;;;;;;;;;;;;4921361;29;20017;-77
2022/07/24 11:44:58;;;;;;;;;;;;;;;;;;4934688;28;20018;-77
2022/07/24 11:47:26;;;;;;;;;;;;;;;;;;4943864;28;19930;-77
2022/07/24 11:49:53;;;;;;;;;;;;;;;;;;4945172;28;19927;-76
2022/07/24 11:52:21;;;;;;;;;;;;;;;;;;4958212;28;19938;-76
2022/07/24 11:54:48;;;;;;;;;;;;;;;;;;4940591;28;20005;-77
2022/07/24 11:57:16;;;;;;;;;;;;;;;;;;4947772;28;19934;-76
2022/07/24 11:59:56;;;;;;;;;;;;;;;;;;4956916;28;19931;-76
2022/07/24 12:02:24;;;;;;;;;;;;;;;;;;4917875;28;19930;-77
2022/07/24 12:04:51;;;;;;;;;;;;;;;;;;4944383;28;19934;-76
2022/07/24 12:07:19;;;;;;;;;;;;;;;;;;4930817;28;19944;-76
2022/07/24 12:09:46;;;;;;;;;;;;;;;;;;4941229;28;19930;-75
2022/07/24 12:12:13;;;;;;;;;;;;;;;;;;4929317;29;19947;-76
2022/07/24 12:14:41;;;;;;;;;;;;;;;;;;4945692;28;20029;-75
2022/07/24 12:17:08;;;;;;;;;;;;;;;;;;4949150;28;19934;-75
2022/07/24 12:19:35;;;;;;;;;;;;;;;;;;4961980;28;20265;-75
2022/07/24 12:22:03;;;;;;;;;;;;;;;;;;4946430;28;19930;-75
2022/07/24 12:24:30;;;;;;;;;;;;;;;;;;4943615;28;19965;-75
2022/07/24 12:26:58;;;;;;;;;;;;;;;;;;4947801;28;20278;-76
2022/07/24 12:29:25;;;;;;;;;;;;;;;;;;4947454;28;20379;-77
2022/07/24 12:31:52;;;;;;;;;;;;;;;;;;4946948;28;19930;-75
2022/07/24 12:34:20;;;;;;;;;;;;;;;;;;4927542;29;19967;-77
2022/07/24 12:36:47;;;;;;;;;;;;;;;;;;4928776;29;19930;-76
2022/07/24 12:39:14;;;;;;;;;;;;;;;;;;4946706;28;20185;-76
2022/07/24 12:41:41;;;;;;;;;;;;;;;;;;4933137;29;19950;-75
2022/07/24 12:44:09;;;;;;;;;;;;;;;;;;4944717;28;20025;-74
2022/07/24 12:46:36;;;;;;;;;;;;;;;;;;4945382;28;20508;-76
2022/07/24 12:49:04;;;;;;;;;;;;;;;;;;4947835;29;19974;-75
2022/07/24 12:51:31;;;;;;;;;;;;;;;;;;4945677;28;19974;-74
2022/07/24 12:53:58;;;;;;;;;;;;;;;;;;4928899;29;20412;-76
2022/07/24 12:56:30;;;;;;;;;;;;;;;;;;4931185;29;19993;-76
2022/07/24 12:58:58;;;;;;;;;;;;;;;;;;4949013;28;20465;-76
2022/07/24 13:01:25;;;;;;;;;;;;;;;;;;4948869;28;19931;-76
2022/07/24 13:03:54;;;;;;;;;;;;;;;;;;4934231;28;19934;-76
2022/07/24 13:06:21;;;;;;;;;;;;;;;;;;4947066;28;20033;-77
2022/07/24 13:08:48;;;;;;;;;;;;;;;;;;4947678;29;20321;-76
2022/07/24 13:11:16;;;;;;;;;;;;;;;;;;4930610;29;20446;-77
2022/07/24 13:13:43;;;;;;;;;;;;;;;;;;4947236;28;20477;-76
2022/07/24 13:16:10;;;;;;;;;;;;;;;;;;4921152;28;20595;-76
2022/07/24 13:18:38;;;;;;;;;;;;;;;;;;4942798;28;19933;-74
2022/07/24 13:21:05;;;;;;;;;;;;;;;;;;4946651;28;20021;-75
2022/07/24 13:23:32;;;;;;;;;;;;;;;;;;4946619;28;20366;-77
2022/07/24 13:25:59;;;;;;;;;;;;;;;;;;4946970;28;20672;-74
2022/07/24 13:28:27;;;;;;;;;;;;;;;;;;4936621;28;20586;-76
2022/07/24 13:30:54;;;;;;;;;;;;;;;;;;4947815;28;19949;-76
2022/07/24 13:33:21;;;;;;;;;;;;;;;;;;4960406;28;20119;-75
2022/07/24 13:35:49;;;;;;;;;;;;;;;;;;4945084;29;20362;-76
2022/07/24 13:38:16;;;;;;;;;;;;;;;;;;4945567;28;19937;-74
2022/07/24 13:40:43;;;;;;;;;;;;;;;;;;4947731;28;19930;-76
2022/07/24 13:43:10;;;;;;;;;;;;;;;;;;4959032;28;20017;-74
2022/07/24 13:45:38;;;;;;;;;;;;;;;;;;4962126;28;19973;-76
2022/07/24 13:48:06;;;;;;;;;;;;;;;;;;4938184;29;19931;-75
2022/07/24 13:50:33;;;;;;;;;;;;;;;;;;4947033;28;19957;-75
2022/07/24 13:53:00;;;;;;;;;;;;;;;;;;4947757;28;20273;-76
2022/07/24 13:55:29;;;;;;;;;;;;;;;;;;4979024;28;19966;-75
2022/07/24 13:57:56;;;;;;;;;;;;;;;;;;4947624;28;19941;-76
2022/07/24 14:00:25;;;;;;;;;;;;;;;;;;4937796;28;20418;-76
2022/07/24 14:02:56;;;;;;;;;;;;;;;;;;4946680;28;19969;-76
2022/07/24 14:05:35;;;;;;;;;;;;;;;;;;4963316;28;19927;-74
2022/07/24 14:08:03;;;;;;;;;;;;;;;;;;4931147;29;20406;-75
2022/07/24 14:10:30;;;;;;;;;;;;;;;;;;4945438;29;19938;-76
2022/07/24 14:12:57;;;;;;;;;;;;;;;;;;4944749;28;19972;-76
2022/07/24 14:15:25;;;;;;;;;;;;;;;;;;4937661;28;19931;-76
2022/07/24 14:17:52;;;;;;;;;;;;;;;;;;4933280;29;20570;-77
2022/07/24 14:20:20;;;;;;;;;;;;;;;;;;4942209;28;19934;-76
2022/07/24 14:22:48;;;;;;;;;;;;;;;;;;4951757;28;19934;-75
2022/07/24 14:25:17;;;;;;;;;;;;;;;;;;4937908;29;19935;-76
2022/07/24 14:27:44;;;;;;;;;;;;;;;;;;4938962;29;19926;-76
2022/07/24 14:30:12;;;;;;;;;;;;;;;;;;4941223;28;19973;-76
2022/07/24 14:32:39;;;;;;;;;;;;;;;;;;4952199;28;19930;-76
2022/07/24 14:35:07;;;;;;;;;;;;;;;;;;4949035;28;20286;-76
2022/07/24 14:37:34;;;;;;;;;;;;;;;;;;4941175;28;19931;-75
2022/07/24 14:40:02;;;;;;;;;;;;;;;;;;4942448;29;20390;-76
2022/07/24 14:42:29;;;;;;;;;;;;;;;;;;4945837;28;20397;-75
2022/07/24 14:44:59;;;;;;;;;;;;;;;;;;4946865;28;20020;-75
2022/07/24 14:47:26;;;;;;;;;;;;;;;;;;4932029;28;19937;-76
2022/07/24 14:49:54;;;;;;;;;;;;;;;;;;4938370;28;19927;-75
2022/07/24 14:52:22;;;;;;;;;;;;;;;;;;4946135;28;20004;-76
2022/07/24 14:54:49;;;;;;;;;;;;;;;;;;4963125;28;19934;-76
2022/07/24 14:57:18;;;;;;;;;;;;;;;;;;4943433;28;20001;-76
2022/07/24 14:59:45;;;;;;;;;;;;;;;;;;4941320;28;19934;-76
2022/07/24 15:02:13;;;;;;;;;;;;;;;;;;4936638;28;19931;-75
2022/07/24 15:04:41;;;;;;;;;;;;;;;;;;4954285;28;19981;-77
2022/07/24 15:07:09;;;;;;;;;;;;;;;;;;4935198;28;19931;-75
2022/07/24 15:09:36;;;;;;;;;;;;;;;;;;4953245;28;20041;-76
2022/07/24 15:12:03;;;;;;;;;;;;;;;;;;4922258;29;19941;-74
2022/07/24 15:14:31;;;;;;;;;;;;;;;;;;4934387;28;20592;-75
2022/07/24 15:16:58;;;;;;;;;;;;;;;;;;4956951;28;19945;-74
2022/07/24 15:19:30;;;;;;;;;;;;;;;;;;4939096;28;19926;-75
2022/07/24 15:21:58;;;;;;;;;;;;;;;;;;4946973;28;20067;-75
2022/07/24 15:24:25;;;;;;;;;;;;;;;;;;4947945;28;19930;-74
2022/07/24 15:26:52;;;;;;;;;;;;;;;;;;4961862;28;19926;-75
2022/07/24 15:29:20;;;;;;;;;;;;;;;;;;4936799;28;19931;-74
2022/07/24 15:31:47;;;;;;;;;;;;;;;;;;4947063;28;20320;-75
2022/07/24 15:34:15;;;;;;;;;;;;;;;;;;4965706;28;20469;-75
2022/07/24 15:36:42;;;;;;;;;;;;;;;;;;4947673;28;20051;-74
2022/07/24 15:39:10;;;;;;;;;;;;;;;;;;4915101;29;19927;-76
2022/07/24 15:41:37;;;;;;;;;;;;;;;;;;4963225;28;19931;-78
2022/07/24 15:44:05;;;;;;;;;;;;;;;;;;4937863;28;20018;-74
2022/07/24 15:46:33;;;;;;;;;;;;;;;;;;4947869;28;20430;-75
2022/07/24 15:49:00;;;;;;;;;;;;;;;;;;4931251;28;20005;-74
2022/07/24 15:51:31;;;;;;;;;;;;;;;;;;4945176;28;19936;-74
2022/07/24 15:53:58;;;;;;;;;;;;;;;;;;4936044;28;19974;-74
2022/07/24 15:56:26;;;;;;;;;;;;;;;;;;4941751;28;20395;-75
2022/07/24 15:58:53;;;;;;;;;;;;;;;;;;4967908;28;19977;-75
2022/07/24 16:01:20;;;;;;;;;;;;;;;;;;4937976;28;20033;-75
2022/07/24 16:04:07;;;;;;;;;;;;;;;;;;4944261;29;19930;-74
2022/07/24 16:06:36;;;;;;;;;;;;;;;;;;4926790;29;20217;-75
2022/07/24 16:09:04;;;;;;;;;;;;;;;;;;4924997;29;20021;-74
2022/07/24 16:11:31;;;;;;;;;;;;;;;;;;4963593;28;19931;-75
2022/07/24 16:13:58;;;;;;;;;;;;;;;;;;4941511;28;20055;-75
2022/07/24 16:16:26;;;;;;;;;;;;;;;;;;4940209;29;19938;-76
2022/07/24 16:18:53;;;;;;;;;;;;;;;;;;4924291;29;20357;-75
2022/07/24 16:21:20;;;;;;;;;;;;;;;;;;4940332;28;20463;-75
2022/07/24 16:23:48;;;;;;;;;;;;;;;;;;4922246;29;19938;-74
2022/07/24 16:26:20;;;;;;;;;;;;;;;;;;4939578;28;20060;-73
2022/07/24 16:28:48;;;;;;;;;;;;;;;;;;4922983;29;20699;-75
2022/07/24 16:31:15;;;;;;;;;;;;;;;;;;4939332;28;19979;-74
2022/07/24 16:33:42;;;;;;;;;;;;;;;;;;4941247;29;19926;-75
2022/07/24 16:36:10;;;;;;;;;;;;;;;;;;4930839;29;20049;-74
2022/07/24 16:38:37;;;;;;;;;;;;;;;;;;4947560;29;19933;-75
2022/07/24 16:41:04;;;;;;;;;;;;;;;;;;4929870;28;19934;-74
2022/07/24 16:43:37;;;;;;;;;;;;;;;;;;4947559;29;19927;-75
2022/07/24 16:46:04;;;;;;;;;;;;;;;;;;4931525;29;19930;-75
2022/07/24 16:48:32;;;;;;;;;;;;;;;;;;4930811;29;19930;-74
2022/07/24 16:50:59;;;;;;;;;;;;;;;;;;4931487;29;20665;-75
2022/07/24 16:53:33;;;;;;;;;;;;;;;;;;4948520;28;19985;-75